sensor_id;sensor_type;location;lat;lon;timestamp;pressure;altitude;pressure_sealevel;temperature;humidity
77110;BME280;66062;52.464;16.922;2024-03-23T09:21:23;99255.59;;;9.29;100.00
77110;BME280;66062;52.464;16.922;2024-03-23T09:23:48;99259.19;;;9.04;100.00
77110;BME280;66062;52.464;16.922;2024-03-23T09:26:14;99258.38;;;8.53;100.00
77110;BME280;66062;52.464;16.922;2024-03-23T09:28:39;99251.84;;;8.82;100.00
77110;BME280;66062;52.464;16.922;2024-03-23T09:31:06;99256.28;;;8.65;100.00
77110;BME280;66062;52.464;16.922;2024-03-23T09:33:33;99255.16;;;8.76;100.00
77110;BME280;66062;52.464;16.922;2024-03-23T09:36:03;99249.00;;;8.75;100.00
77110;BME280;66062;52.464;16.922;2024-03-23T09:38:29;99254.84;;;8.37;100.00
77110;BME280;66062;52.464;16.922;2024-03-23T09:40:54;99236.31;;;8.53;100.00
77110;BME280;66062;52.464;16.922;2024-03-23T09:43:20;99232.03;;;8.34;100.00
77110;BME280;66062;52.464;16.922;2024-03-23T09:45:46;99213.97;;;8.38;100.00
77110;BME280;66062;52.464;16.922;2024-03-23T09:48:12;99219.09;;;8.39;100.00
77110;BME280;66062;52.464;16.922;2024-03-23T09:50:42;99229.22;;;8.78;100.00
77110;BME280;66062;52.464;16.922;2024-03-23T09:53:09;99226.44;;;8.45;100.00
77110;BME280;66062;52.464;16.922;2024-03-23T09:55:35;99225.06;;;8.33;100.00
77110;BME280;66062;52.464;16.922;2024-03-23T09:58:04;99232.81;;;8.61;100.00
77110;BME280;66062;52.464;16.922;2024-03-23T10:00:34;99212.72;;;8.66;100.00
77110;BME280;66062;52.464;16.922;2024-03-23T10:03:00;99206.09;;;8.70;100.00
77110;BME280;66062;52.464;16.922;2024-03-23T10:05:30;99209.28;;;8.82;100.00
77110;BME280;66062;52.464;16.922;2024-03-23T10:10:40;99209.81;;;8.43;100.00
77110;BME280;66062;52.464;16.922;2024-03-23T10:13:06;99209.59;;;8.03;100.00
77110;BME280;66062;52.464;16.922;2024-03-23T10:15:34;99202.00;;;8.08;100.00
77110;BME280;66062;52.464;16.922;2024-03-23T10:18:21;99194.03;;;8.42;100.00
77110;BME280;66062;52.464;16.922;2024-03-23T10:21:07;99189.47;;;7.92;100.00
77110;BME280;66062;52.464;16.922;2024-03-23T10:23:40;99186.75;;;8.18;100.00
77110;BME280;66062;52.464;16.922;2024-03-23T10:26:23;99189.88;;;8.39;100.00
77110;BME280;66062;52.464;16.922;2024-03-23T10:28:54;99186.84;;;8.34;100.00
77110;BME280;66062;52.464;16.922;2024-03-23T10:31:20;99194.69;;;8.02;100.00
77110;BME280;66062;52.464;16.922;2024-03-23T10:33:49;99195.97;;;7.98;100.00
77110;BME280;66062;52.464;16.922;2024-03-23T10:36:15;99185.78;;;8.19;100.00
77110;BME280;66062;52.464;16.922;2024-03-23T10:38:43;99190.25;;;8.52;100.00
77110;BME280;66062;52.464;16.922;2024-03-23T10:41:09;99200.06;;;8.60;100.00
77110;BME280;66062;52.464;16.922;2024-03-23T10:43:36;99195.88;;;8.41;100.00
77110;BME280;66062;52.464;16.922;2024-03-23T10:46:02;99178.31;;;8.56;100.00
77110;BME280;66062;52.464;16.922;2024-03-23T10:48:28;99170.38;;;8.81;100.00
77110;BME280;66062;52.464;16.922;2024-03-23T10:50:53;99156.56;;;8.85;100.00
77110;BME280;66062;52.464;16.922;2024-03-23T10:53:21;99151.91;;;8.79;100.00
77110;BME280;66062;52.464;16.922;2024-03-23T10:55:50;99151.22;;;8.69;100.00
77110;BME280;66062;52.464;16.922;2024-03-23T10:58:19;99151.41;;;8.76;100.00
77110;BME280;66062;52.464;16.922;2024-03-23T11:00:47;99149.91;;;8.73;100.00
77110;BME280;66062;52.464;16.922;2024-03-23T11:03:37;99150.56;;;8.75;100.00
77110;BME280;66062;52.464;16.922;2024-03-23T11:06:05;99161.19;;;8.17;100.00
77110;BME280;66062;52.464;16.922;2024-03-23T11:08:38;99152.41;;;8.67;100.00
77110;BME280;66062;52.464;16.922;2024-03-23T11:11:20;99145.06;;;8.69;100.00
77110;BME280;66062;52.464;16.922;2024-03-23T11:13:51;99137.28;;;8.75;100.00
77110;BME280;66062;52.464;16.922;2024-03-23T11:16:23;99123.66;;;8.78;100.00
77110;BME280;66062;52.464;16.922;2024-03-23T11:18:50;99095.88;;;8.81;100.00
77110;BME280;66062;52.464;16.922;2024-03-23T11:21:51;99080.59;;;9.07;100.00
77110;BME280;66062;52.464;16.922;2024-03-23T11:24:19;99087.06;;;8.72;100.00
77110;BME280;66062;52.464;16.922;2024-03-23T11:26:45;99089.56;;;9.06;100.00
77110;BME280;66062;52.464;16.922;2024-03-23T11:29:11;99070.28;;;8.88;100.00
77110;BME280;66062;52.464;16.922;2024-03-23T11:31:37;99047.31;;;8.79;100.00
77110;BME280;66062;52.464;16.922;2024-03-23T11:34:06;99046.50;;;8.70;100.00
77110;BME280;66062;52.464;16.922;2024-03-23T11:36:32;99051.00;;;8.70;100.00
77110;BME280;66062;52.464;16.922;2024-03-23T11:38:58;99049.91;;;8.14;100.00
77110;BME280;66062;52.464;16.922;2024-03-23T11:41:23;99045.22;;;8.08;100.00
77110;BME280;66062;52.464;16.922;2024-03-23T11:43:50;99040.59;;;8.18;100.00
77110;BME280;66062;52.464;16.922;2024-03-23T11:46:24;99037.25;;;8.08;100.00
77110;BME280;66062;52.464;16.922;2024-03-23T11:48:50;99037.00;;;8.35;100.00
77110;BME280;66062;52.464;16.922;2024-03-23T11:51:18;99035.03;;;8.53;100.00
77110;BME280;66062;52.464;16.922;2024-03-23T11:53:44;99020.19;;;8.18;100.00
77110;BME280;66062;52.464;16.922;2024-03-23T11:56:09;99007.78;;;8.59;100.00
77110;BME280;66062;52.464;16.922;2024-03-23T11:58:35;99015.88;;;8.26;100.00
77110;BME280;66062;52.464;16.922;2024-03-23T12:01:02;99011.84;;;7.97;100.00
77110;BME280;66062;52.464;16.922;2024-03-23T12:03:29;99004.72;;;8.14;100.00
77110;BME280;66062;52.464;16.922;2024-03-23T12:05:57;99006.38;;;8.07;100.00
77110;BME280;66062;52.464;16.922;2024-03-23T12:11:11;99001.91;;;8.15;100.00
77110;BME280;66062;52.464;16.922;2024-03-23T12:13:37;99002.50;;;7.85;100.00
77110;BME280;66062;52.464;16.922;2024-03-23T12:16:24;99001.06;;;8.07;100.00
77110;BME280;66062;52.464;16.922;2024-03-23T12:18:50;98984.88;;;8.42;100.00
77110;BME280;66062;52.464;16.922;2024-03-23T12:21:20;98977.88;;;8.49;100.00
77110;BME280;66062;52.464;16.922;2024-03-23T12:23:48;98979.50;;;8.58;100.00
77110;BME280;66062;52.464;16.922;2024-03-23T12:26:15;98982.53;;;8.47;100.00
77110;BME280;66062;52.464;16.922;2024-03-23T12:28:41;98978.31;;;8.29;100.00
77110;BME280;66062;52.464;16.922;2024-03-23T12:31:07;98984.47;;;8.13;100.00
77110;BME280;66062;52.464;16.922;2024-03-23T12:33:32;98976.00;;;8.01;100.00
77110;BME280;66062;52.464;16.922;2024-03-23T12:35:58;98970.03;;;8.24;100.00
77110;BME280;66062;52.464;16.922;2024-03-23T12:38:23;98972.50;;;8.09;100.00
77110;BME280;66062;52.464;16.922;2024-03-23T12:40:49;98956.59;;;8.17;100.00
77110;BME280;66062;52.464;16.922;2024-03-23T12:43:18;98968.84;;;8.10;100.00
77110;BME280;66062;52.464;16.922;2024-03-23T12:45:47;98983.59;;;7.80;100.00
77110;BME280;66062;52.464;16.922;2024-03-23T12:48:13;98982.94;;;7.86;100.00
77110;BME280;66062;52.464;16.922;2024-03-23T12:50:38;98976.94;;;7.76;100.00
77110;BME280;66062;52.464;16.922;2024-03-23T12:53:04;98960.16;;;7.76;100.00
77110;BME280;66062;52.464;16.922;2024-03-23T12:55:29;98949.78;;;7.48;100.00
77110;BME280;66062;52.464;16.922;2024-03-23T12:57:55;98973.31;;;7.35;100.00
77110;BME280;66062;52.464;16.922;2024-03-23T13:00:20;98995.88;;;7.39;100.00
77110;BME280;66062;52.464;16.922;2024-03-23T13:02:45;99004.97;;;7.03;100.00
77110;BME280;66062;52.464;16.922;2024-03-23T13:05:11;99033.16;;;7.04;100.00
77110;BME280;66062;52.464;16.922;2024-03-23T13:07:36;99054.69;;;6.75;100.00
77110;BME280;66062;52.464;16.922;2024-03-23T13:10:04;99071.94;;;6.61;100.00
77110;BME280;66062;52.464;16.922;2024-03-23T13:12:30;99095.63;;;6.45;100.00
77110;BME280;66062;52.464;16.922;2024-03-23T13:14:56;99115.97;;;6.54;100.00
77110;BME280;66062;52.464;16.922;2024-03-23T13:17:21;99127.09;;;6.58;100.00
77110;BME280;66062;52.464;16.922;2024-03-23T13:19:47;99132.06;;;6.43;100.00
77110;BME280;66062;52.464;16.922;2024-03-23T13:22:12;99126.09;;;6.41;100.00
77110;BME280;66062;52.464;16.922;2024-03-23T13:24:38;99130.50;;;6.50;100.00
77110;BME280;66062;52.464;16.922;2024-03-23T13:27:03;99128.22;;;6.37;100.00
77110;BME280;66062;52.464;16.922;2024-03-23T13:29:30;99134.47;;;6.36;100.00
77110;BME280;66062;52.464;16.922;2024-03-23T13:31:56;99148.13;;;6.41;100.00
77110;BME280;66062;52.464;16.922;2024-03-23T13:34:23;99150.56;;;6.08;100.00
77110;BME280;66062;52.464;16.922;2024-03-23T13:36:48;99148.00;;;5.88;100.00
77110;BME280;66062;52.464;16.922;2024-03-23T13:39:14;99154.75;;;5.64;100.00
77110;BME280;66062;52.464;16.922;2024-03-23T13:41:41;99187.59;;;5.71;100.00
77110;BME280;66062;52.464;16.922;2024-03-23T13:44:08;99195.06;;;5.38;100.00
77110;BME280;66062;52.464;16.922;2024-03-23T13:46:33;99208.28;;;5.29;100.00
77110;BME280;66062;52.464;16.922;2024-03-23T13:48:59;99221.09;;;5.14;100.00
77110;BME280;66062;52.464;16.922;2024-03-23T13:51:26;99219.56;;;5.21;100.00
77110;BME280;66062;52.464;16.922;2024-03-23T13:53:56;99229.19;;;5.22;100.00
77110;BME280;66062;52.464;16.922;2024-03-23T13:56:22;99237.38;;;5.09;100.00
77110;BME280;66062;52.464;16.922;2024-03-23T13:58:48;99241.28;;;5.15;100.00
77110;BME280;66062;52.464;16.922;2024-03-23T14:01:17;99246.28;;;4.89;100.00
77110;BME280;66062;52.464;16.922;2024-03-23T14:03:43;99244.59;;;4.79;100.00
77110;BME280;66062;52.464;16.922;2024-03-23T14:06:09;99243.31;;;4.73;100.00
77110;BME280;66062;52.464;16.922;2024-03-23T14:08:38;99222.63;;;4.88;100.00
77110;BME280;66062;52.464;16.922;2024-03-23T14:11:10;99231.38;;;4.88;100.00
77110;BME280;66062;52.464;16.922;2024-03-23T14:13:35;99232.63;;;4.84;100.00
77110;BME280;66062;52.464;16.922;2024-03-23T14:16:01;99240.03;;;4.90;100.00
77110;BME280;66062;52.464;16.922;2024-03-23T14:18:27;99245.19;;;5.01;100.00
77110;BME280;66062;52.464;16.922;2024-03-23T14:20:57;99239.75;;;5.03;100.00
77110;BME280;66062;52.464;16.922;2024-03-23T14:23:26;99245.44;;;5.08;100.00
77110;BME280;66062;52.464;16.922;2024-03-23T14:25:53;99244.75;;;5.06;100.00
77110;BME280;66062;52.464;16.922;2024-03-23T14:28:19;99255.06;;;5.18;100.00
77110;BME280;66062;52.464;16.922;2024-03-23T14:30:45;99264.66;;;5.20;100.00
77110;BME280;66062;52.464;16.922;2024-03-23T14:33:10;99277.19;;;5.37;100.00
77110;BME280;66062;52.464;16.922;2024-03-23T14:35:35;99284.59;;;5.33;100.00
77110;BME280;66062;52.464;16.922;2024-03-23T14:38:01;99293.34;;;5.34;100.00
77110;BME280;66062;52.464;16.922;2024-03-23T14:40:28;99317.56;;;5.39;100.00
77110;BME280;66062;52.464;16.922;2024-03-23T14:42:54;99330.78;;;5.29;100.00
77110;BME280;66062;52.464;16.922;2024-03-23T14:45:20;99339.00;;;5.26;100.00
77110;BME280;66062;52.464;16.922;2024-03-23T14:50:42;99363.53;;;5.28;100.00
77110;BME280;66062;52.464;16.922;2024-03-23T14:53:07;99367.25;;;5.16;100.00
77110;BME280;66062;52.464;16.922;2024-03-23T14:55:34;99374.78;;;5.21;100.00
77110;BME280;66062;52.464;16.922;2024-03-23T14:57:59;99377.97;;;5.34;100.00
77110;BME280;66062;52.464;16.922;2024-03-23T15:00:26;99384.41;;;5.31;100.00
77110;BME280;66062;52.464;16.922;2024-03-23T15:02:51;99397.09;;;5.37;100.00
77110;BME280;66062;52.464;16.922;2024-03-23T15:05:18;99412.28;;;5.54;100.00
77110;BME280;66062;52.464;16.922;2024-03-23T15:07:43;99426.06;;;5.48;100.00
77110;BME280;66062;52.464;16.922;2024-03-23T15:10:09;99420.50;;;5.42;100.00
77110;BME280;66062;52.464;16.922;2024-03-23T15:12:35;99403.34;;;5.36;100.00
77110;BME280;66062;52.464;16.922;2024-03-23T15:15:00;99414.50;;;5.49;100.00
77110;BME280;66062;52.464;16.922;2024-03-23T15:17:26;99428.13;;;5.45;100.00
77110;BME280;66062;52.464;16.922;2024-03-23T15:19:51;99423.13;;;5.42;100.00
77110;BME280;66062;52.464;16.922;2024-03-23T15:22:18;99417.84;;;5.42;100.00
77110;BME280;66062;52.464;16.922;2024-03-23T15:24:44;99410.00;;;5.21;100.00
77110;BME280;66062;52.464;16.922;2024-03-23T15:27:09;99410.00;;;5.31;100.00
77110;BME280;66062;52.464;16.922;2024-03-23T15:29:35;99422.28;;;5.32;100.00
77110;BME280;66062;52.464;16.922;2024-03-23T15:32:02;99436.78;;;5.37;100.00
77110;BME280;66062;52.464;16.922;2024-03-23T15:34:28;99446.00;;;5.52;100.00
77110;BME280;66062;52.464;16.922;2024-03-23T15:36:54;99444.84;;;5.45;100.00
77110;BME280;66062;52.464;16.922;2024-03-23T15:39:20;99441.66;;;5.51;100.00
77110;BME280;66062;52.464;16.922;2024-03-23T15:41:46;99468.97;;;5.52;100.00
77110;BME280;66062;52.464;16.922;2024-03-23T15:44:12;99461.28;;;5.49;100.00
77110;BME280;66062;52.464;16.922;2024-03-23T15:46:38;99468.00;;;5.53;100.00
77110;BME280;66062;52.464;16.922;2024-03-23T15:49:03;99458.53;;;5.60;100.00
77110;BME280;66062;52.464;16.922;2024-03-23T15:51:29;99454.63;;;5.64;100.00
77110;BME280;66062;52.464;16.922;2024-03-23T15:53:59;99469.13;;;5.60;100.00
77110;BME280;66062;52.464;16.922;2024-03-23T15:56:24;99480.53;;;5.60;100.00
77110;BME280;66062;52.464;16.922;2024-03-23T15:58:51;99478.03;;;5.59;100.00
77110;BME280;66062;52.464;16.922;2024-03-23T16:01:16;99477.75;;;5.62;100.00
77110;BME280;66062;52.464;16.922;2024-03-23T16:03:42;99474.84;;;5.65;100.00
77110;BME280;66062;52.464;16.922;2024-03-23T16:06:10;99480.31;;;5.73;100.00
77110;BME280;66062;52.464;16.922;2024-03-23T16:08:48;99471.09;;;5.77;100.00
77110;BME280;66062;52.464;16.922;2024-03-23T16:11:19;99482.63;;;5.57;100.00
77110;BME280;66062;52.464;16.922;2024-03-23T16:13:45;99492.38;;;5.56;100.00
77110;BME280;66062;52.464;16.922;2024-03-23T16:16:11;99486.78;;;5.50;100.00
77110;BME280;66062;52.464;16.922;2024-03-23T16:18:37;99478.84;;;5.50;100.00
77110;BME280;66062;52.464;16.922;2024-03-23T16:21:06;99486.66;;;5.51;100.00
77110;BME280;66062;52.464;16.922;2024-03-23T16:23:32;99485.50;;;5.44;100.00
77110;BME280;66062;52.464;16.922;2024-03-23T16:25:58;99481.34;;;5.42;100.00
77110;BME280;66062;52.464;16.922;2024-03-23T16:28:26;99474.38;;;5.41;100.00
77110;BME280;66062;52.464;16.922;2024-03-23T16:31:11;99476.88;;;5.33;100.00
77110;BME280;66062;52.464;16.922;2024-03-23T16:33:37;99504.53;;;5.29;100.00
77110;BME280;66062;52.464;16.922;2024-03-23T16:36:08;99499.13;;;5.30;100.00
77110;BME280;66062;52.464;16.922;2024-03-23T16:38:40;99504.16;;;5.33;100.00
77110;BME280;66062;52.464;16.922;2024-03-23T16:41:10;99504.28;;;5.32;100.00
77110;BME280;66062;52.464;16.922;2024-03-23T16:43:41;99524.03;;;5.28;100.00
77110;BME280;66062;52.464;16.922;2024-03-23T16:46:09;99525.84;;;5.27;100.00
77110;BME280;66062;52.464;16.922;2024-03-23T16:48:37;99518.88;;;5.26;100.00
77110;BME280;66062;52.464;16.922;2024-03-23T16:51:04;99533.38;;;5.32;100.00
77110;BME280;66062;52.464;16.922;2024-03-23T16:53:29;99538.66;;;5.32;100.00
77110;BME280;66062;52.464;16.922;2024-03-23T16:55:56;99535.59;;;5.27;100.00
77110;BME280;66062;52.464;16.922;2024-03-23T16:58:29;99526.50;;;5.20;100.00
77110;BME280;66062;52.464;16.922;2024-03-23T17:00:55;99520.88;;;5.13;100.00
77110;BME280;66062;52.464;16.922;2024-03-23T17:03:24;99521.84;;;5.02;100.00
77110;BME280;66062;52.464;16.922;2024-03-23T17:05:50;99527.56;;;5.07;100.00
77110;BME280;66062;52.464;16.922;2024-03-23T17:08:16;99539.34;;;5.03;100.00
77110;BME280;66062;52.464;16.922;2024-03-23T17:10:42;99532.88;;;4.87;100.00
77110;BME280;66062;52.464;16.922;2024-03-23T17:13:08;99535.91;;;4.82;100.00
77110;BME280;66062;52.464;16.922;2024-03-23T17:15:42;99535.81;;;4.93;100.00
77110;BME280;66062;52.464;16.922;2024-03-23T17:18:07;99537.16;;;4.88;100.00
77110;BME280;66062;52.464;16.922;2024-03-23T17:20:33;99535.38;;;4.88;100.00
77110;BME280;66062;52.464;16.922;2024-03-23T17:22:58;99532.41;;;5.02;100.00
77110;BME280;66062;52.464;16.922;2024-03-23T17:25:23;99536.63;;;5.14;100.00
77110;BME280;66062;52.464;16.922;2024-03-23T17:27:49;99536.66;;;5.24;100.00
77110;BME280;66062;52.464;16.922;2024-03-23T17:30:15;99550.97;;;5.12;100.00
77110;BME280;66062;52.464;16.922;2024-03-23T17:32:42;99558.50;;;5.16;100.00
77110;BME280;66062;52.464;16.922;2024-03-23T17:35:09;99549.59;;;5.18;100.00
77110;BME280;66062;52.464;16.922;2024-03-23T17:37:35;99555.91;;;5.26;100.00
77110;BME280;66062;52.464;16.922;2024-03-23T17:40:00;99575.50;;;5.24;100.00
77110;BME280;66062;52.464;16.922;2024-03-23T17:42:26;99583.34;;;5.04;100.00
77110;BME280;66062;52.464;16.922;2024-03-23T17:44:51;99594.44;;;4.98;100.00
77110;BME280;66062;52.464;16.922;2024-03-23T17:47:17;99595.03;;;5.02;100.00
77110;BME280;66062;52.464;16.922;2024-03-23T17:49:42;99599.94;;;5.06;100.00
77110;BME280;66062;52.464;16.922;2024-03-23T17:52:09;99619.28;;;5.07;100.00
77110;BME280;66062;52.464;16.922;2024-03-23T17:54:39;99615.63;;;5.08;100.00
77110;BME280;66062;52.464;16.922;2024-03-23T17:57:05;99617.97;;;5.01;100.00
77110;BME280;66062;52.464;16.922;2024-03-23T17:59:34;99605.41;;;4.94;100.00
77110;BME280;66062;52.464;16.922;2024-03-23T18:02:01;99609.34;;;4.99;100.00
77110;BME280;66062;52.464;16.922;2024-03-23T18:04:26;99600.44;;;4.80;100.00
77110;BME280;66062;52.464;16.922;2024-03-23T18:06:52;99595.72;;;4.83;100.00
77110;BME280;66062;52.464;16.922;2024-03-23T18:09:18;99582.44;;;4.94;100.00
77110;BME280;66062;52.464;16.922;2024-03-23T18:11:43;99585.16;;;4.83;100.00
77110;BME280;66062;52.464;16.922;2024-03-23T18:14:09;99576.97;;;4.86;100.00
77110;BME280;66062;52.464;16.922;2024-03-23T18:16:34;99577.09;;;4.85;100.00
77110;BME280;66062;52.464;16.922;2024-03-23T18:18:59;99593.47;;;4.79;100.00
77110;BME280;66062;52.464;16.922;2024-03-23T18:21:25;99616.72;;;4.64;100.00
77110;BME280;66062;52.464;16.922;2024-03-23T18:23:50;99645.88;;;4.73;100.00
77110;BME280;66062;52.464;16.922;2024-03-23T18:26:16;99684.47;;;4.65;100.00
77110;BME280;66062;52.464;16.922;2024-03-23T18:28:41;99716.66;;;4.59;100.00
77110;BME280;66062;52.464;16.922;2024-03-23T18:31:07;99705.59;;;4.65;100.00
77110;BME280;66062;52.464;16.922;2024-03-23T18:33:36;99672.44;;;4.72;100.00
77110;BME280;66062;52.464;16.922;2024-03-23T18:36:01;99658.78;;;4.67;100.00
77110;BME280;66062;52.464;16.922;2024-03-23T18:38:28;99644.56;;;4.68;100.00
77110;BME280;66062;52.464;16.922;2024-03-23T18:40:53;99661.88;;;4.72;100.00
77110;BME280;66062;52.464;16.922;2024-03-23T18:43:19;99657.31;;;4.63;100.00
77110;BME280;66062;52.464;16.922;2024-03-23T18:45:50;99648.03;;;4.68;100.00
77110;BME280;66062;52.464;16.922;2024-03-23T18:48:16;99654.69;;;4.63;100.00
77110;BME280;66062;52.464;16.922;2024-03-23T18:50:42;99650.38;;;4.62;100.00
77110;BME280;66062;52.464;16.922;2024-03-23T18:53:08;99650.47;;;4.71;100.00
77110;BME280;66062;52.464;16.922;2024-03-23T18:55:35;99659.56;;;4.67;100.00
77110;BME280;66062;52.464;16.922;2024-03-23T18:58:01;99649.63;;;4.71;100.00
77110;BME280;66062;52.464;16.922;2024-03-23T19:00:28;99650.31;;;4.73;100.00
77110;BME280;66062;52.464;16.922;2024-03-23T19:02:53;99646.00;;;4.72;100.00
77110;BME280;66062;52.464;16.922;2024-03-23T19:05:19;99640.97;;;4.69;100.00
77110;BME280;66062;52.464;16.922;2024-03-23T19:07:44;99630.50;;;4.67;100.00
77110;BME280;66062;52.464;16.922;2024-03-23T19:10:10;99642.31;;;4.63;100.00
77110;BME280;66062;52.464;16.922;2024-03-23T19:12:35;99655.78;;;4.60;100.00
77110;BME280;66062;52.464;16.922;2024-03-23T19:15:00;99655.44;;;4.54;100.00
77110;BME280;66062;52.464;16.922;2024-03-23T19:17:26;99659.56;;;4.47;100.00
77110;BME280;66062;52.464;16.922;2024-03-23T19:19:52;99661.72;;;4.42;100.00
77110;BME280;66062;52.464;16.922;2024-03-23T19:22:17;99664.38;;;4.42;100.00
77110;BME280;66062;52.464;16.922;2024-03-23T19:24:43;99654.53;;;4.32;100.00
77110;BME280;66062;52.464;16.922;2024-03-23T19:27:08;99647.59;;;4.32;100.00
77110;BME280;66062;52.464;16.922;2024-03-23T19:29:33;99643.00;;;4.34;100.00
77110;BME280;66062;52.464;16.922;2024-03-23T19:31:59;99637.75;;;4.22;100.00
77110;BME280;66062;52.464;16.922;2024-03-23T19:34:24;99646.38;;;4.36;100.00
77110;BME280;66062;52.464;16.922;2024-03-23T19:36:49;99644.47;;;4.26;100.00
77110;BME280;66062;52.464;16.922;2024-03-23T19:39:15;99638.94;;;4.29;100.00
77110;BME280;66062;52.464;16.922;2024-03-23T19:41:40;99642.09;;;4.12;100.00
77110;BME280;66062;52.464;16.922;2024-03-23T19:44:08;99643.75;;;4.24;100.00
77110;BME280;66062;52.464;16.922;2024-03-23T19:46:33;99648.56;;;4.19;100.00
77110;BME280;66062;52.464;16.922;2024-03-23T19:48:59;99635.56;;;4.27;100.00
77110;BME280;66062;52.464;16.922;2024-03-23T19:51:24;99638.00;;;4.19;100.00
77110;BME280;66062;52.464;16.922;2024-03-23T19:53:53;99636.09;;;4.21;100.00
77110;BME280;66062;52.464;16.922;2024-03-23T19:56:19;99633.09;;;4.15;100.00
77110;BME280;66062;52.464;16.922;2024-03-23T19:58:44;99640.28;;;4.13;100.00
77110;BME280;66062;52.464;16.922;2024-03-23T20:01:16;99633.22;;;4.02;100.00
77110;BME280;66062;52.464;16.922;2024-03-23T20:03:47;99614.03;;;4.11;100.00
77110;BME280;66062;52.464;16.922;2024-03-23T20:06:16;99619.53;;;4.08;100.00
77110;BME280;66062;52.464;16.922;2024-03-23T20:08:42;99616.78;;;4.10;100.00
77110;BME280;66062;52.464;16.922;2024-03-23T20:11:07;99613.19;;;4.11;100.00
77110;BME280;66062;52.464;16.922;2024-03-23T20:13:33;99611.63;;;4.08;100.00
77110;BME280;66062;52.464;16.922;2024-03-23T20:15:59;99616.44;;;4.03;100.00
77110;BME280;66062;52.464;16.922;2024-03-23T20:18:30;99608.50;;;4.03;100.00
77110;BME280;66062;52.464;16.922;2024-03-23T20:20:56;99616.69;;;4.00;100.00
77110;BME280;66062;52.464;16.922;2024-03-23T20:23:24;99613.78;;;4.03;100.00
77110;BME280;66062;52.464;16.922;2024-03-23T20:25:52;99604.19;;;4.02;100.00
77110;BME280;66062;52.464;16.922;2024-03-23T20:28:18;99601.16;;;4.07;100.00
77110;BME280;66062;52.464;16.922;2024-03-23T20:30:45;99607.94;;;4.00;100.00
77110;BME280;66062;52.464;16.922;2024-03-23T20:33:10;99603.97;;;4.05;100.00
77110;BME280;66062;52.464;16.922;2024-03-23T20:35:36;99592.44;;;4.06;100.00
77110;BME280;66062;52.464;16.922;2024-03-23T20:38:01;99595.19;;;4.05;100.00
77110;BME280;66062;52.464;16.922;2024-03-23T20:40:27;99595.31;;;4.03;100.00
77110;BME280;66062;52.464;16.922;2024-03-23T20:42:53;99589.44;;;4.00;100.00
77110;BME280;66062;52.464;16.922;2024-03-23T20:45:19;99588.34;;;4.02;100.00
77110;BME280;66062;52.464;16.922;2024-03-23T20:47:45;99574.53;;;4.10;100.00
77110;BME280;66062;52.464;16.922;2024-03-23T20:50:10;99590.75;;;4.16;100.00
77110;BME280;66062;52.464;16.922;2024-03-23T20:52:38;99575.94;;;4.25;100.00
77110;BME280;66062;52.464;16.922;2024-03-23T20:55:07;99579.66;;;4.22;100.00
77110;BME280;66062;52.464;16.922;2024-03-23T20:57:34;99584.25;;;4.20;100.00
77110;BME280;66062;52.464;16.922;2024-03-23T21:00:00;99584.69;;;4.25;100.00
77110;BME280;66062;52.464;16.922;2024-03-23T21:02:25;99580.13;;;4.27;100.00
77110;BME280;66062;52.464;16.922;2024-03-23T21:04:51;99579.25;;;4.38;100.00
77110;BME280;66062;52.464;16.922;2024-03-23T21:07:16;99574.22;;;4.35;100.00
77110;BME280;66062;52.464;16.922;2024-03-23T21:09:41;99575.75;;;4.38;100.00
77110;BME280;66062;52.464;16.922;2024-03-23T21:12:07;99579.16;;;4.28;100.00
77110;BME280;66062;52.464;16.922;2024-03-23T21:14:33;99576.97;;;4.34;100.00
77110;BME280;66062;52.464;16.922;2024-03-23T21:16:59;99578.81;;;4.22;100.00
77110;BME280;66062;52.464;16.922;2024-03-23T21:19:25;99580.50;;;4.23;100.00
77110;BME280;66062;52.464;16.922;2024-03-23T21:21:50;99575.56;;;4.29;100.00
77110;BME280;66062;52.464;16.922;2024-03-23T21:24:16;99572.19;;;4.27;100.00
77110;BME280;66062;52.464;16.922;2024-03-23T21:26:41;99572.94;;;4.18;100.00
77110;BME280;66062;52.464;16.922;2024-03-23T21:29:06;99574.50;;;4.21;100.00
77110;BME280;66062;52.464;16.922;2024-03-23T21:31:32;99565.66;;;4.11;100.00
77110;BME280;66062;52.464;16.922;2024-03-23T21:33:57;99568.16;;;4.12;100.00
77110;BME280;66062;52.464;16.922;2024-03-23T21:36:24;99563.41;;;4.06;100.00
77110;BME280;66062;52.464;16.922;2024-03-23T21:38:50;99570.59;;;4.04;100.00
77110;BME280;66062;52.464;16.922;2024-03-23T21:41:15;99575.63;;;4.07;100.00
77110;BME280;66062;52.464;16.922;2024-03-23T21:43:41;99575.28;;;4.01;100.00
77110;BME280;66062;52.464;16.922;2024-03-23T21:46:06;99575.53;;;3.98;100.00
77110;BME280;66062;52.464;16.922;2024-03-23T21:48:33;99572.78;;;3.99;100.00
77110;BME280;66062;52.464;16.922;2024-03-23T21:51:02;99562.34;;;3.86;100.00
77110;BME280;66062;52.464;16.922;2024-03-23T21:53:28;99561.66;;;3.73;100.00
77110;BME280;66062;52.464;16.922;2024-03-23T21:55:54;99555.28;;;3.76;100.00
77110;BME280;66062;52.464;16.922;2024-03-23T21:58:24;99557.91;;;3.87;100.00
77110;BME280;66062;52.464;16.922;2024-03-23T22:00:49;99553.38;;;3.78;100.00
77110;BME280;66062;52.464;16.922;2024-03-23T22:03:15;99540.28;;;3.76;100.00
77110;BME280;66062;52.464;16.922;2024-03-23T22:05:41;99541.63;;;3.71;100.00
77110;BME280;66062;52.464;16.922;2024-03-23T22:08:07;99533.31;;;3.86;100.00
77110;BME280;66062;52.464;16.922;2024-03-23T22:10:36;99538.00;;;3.94;100.00
77110;BME280;66062;52.464;16.922;2024-03-23T22:13:04;99535.38;;;3.83;100.00
77110;BME280;66062;52.464;16.922;2024-03-23T22:15:30;99538.38;;;3.90;100.00
77110;BME280;66062;52.464;16.922;2024-03-23T22:17:56;99538.25;;;3.91;100.00